Time;durP1;ratioP1;P1;durP2;ratioP2;P2;SDS_P1;SDS_P2;PMS_P1;PMS_P2;Temp;Humidity;BMP_temperature;BMP_pressure;BME280_temperature;BME280_humidity;BME280_pressure;Samples;Min_cycle;Max_cycle;Signal;HPM_P1;HPM_P2
2022/11/02 00:01:51;;;;;;;5.47;1.83;;;;;;;;;;4955052;28;20065;-65
2022/11/02 00:04:22;;;;;;;3.88;1.45;;;;;;;;;;4990148;28;20465;-65
2022/11/02 00:06:53;;;;;;;3.63;1.38;;;;;;;;;;4990460;28;20062;-65
2022/11/02 00:09:24;;;;;;;3.95;1.27;;;;;;;;;;4988205;28;20061;-65
2022/11/02 00:11:54;;;;;;;2.53;1.05;;;;;;;;;;4971092;28;20061;-65
2022/11/02 00:14:24;;;;;;;2.97;1.20;;;;;;;;;;4951655;28;20066;-65
2022/11/02 00:16:55;;;;;;;4.47;1.40;;;;;;;;;;4951910;29;20059;-65
2022/11/02 00:19:25;;;;;;;6.05;1.00;;;;;;;;;;4946037;28;20159;-65
2022/11/02 00:21:58;;;;;;;3.33;0.80;;;;;;;;;;4971004;28;20054;-65
2022/11/02 00:24:30;;;;;;;1.40;0.80;;;;;;;;;;4970925;28;20058;-65
2022/11/02 00:27:01;;;;;;;3.63;1.13;;;;;;;;;;4951404;29;20051;-65
2022/11/02 00:29:34;;;;;;;3.20;0.90;;;;;;;;;;4951261;29;20066;-65
2022/11/02 00:32:07;;;;;;;4.22;1.00;;;;;;;;;;4958460;28;20485;-65
2022/11/02 00:34:38;;;;;;;3.75;0.82;;;;;;;;;;5009523;28;20053;-65
2022/11/02 00:37:09;;;;;;;4.40;0.93;;;;;;;;;;4993419;28;20049;-65
2022/11/02 00:39:39;;;;;;;6.07;1.83;;;;;;;;;;5009644;28;20062;-65
2022/11/02 00:42:10;;;;;;;3.63;1.13;;;;;;;;;;5043483;28;20059;-66
2022/11/02 00:44:42;;;;;;;2.88;1.10;;;;;;;;;;5069370;28;20052;-65
2022/11/02 00:47:13;;;;;;;7.53;2.10;;;;;;;;;;4960999;28;20518;-65
2022/11/02 00:49:43;;;;;;;11.27;4.93;;;;;;;;;;5009282;28;20148;-65
2022/11/02 00:52:15;;;;;;;16.58;5.75;;;;;;;;;;4989859;28;20396;-65
2022/11/02 00:55:10;;;;;;;13.85;4.25;;;;;;;;;;4966153;28;20051;-66
2022/11/02 00:57:44;;;;;;;9.43;3.40;;;;;;;;;;4950649;29;20443;-65
2022/11/02 01:00:15;;;;;;;7.63;3.03;;;;;;;;;;4951458;28;20083;-65
2022/11/02 01:02:46;;;;;;;5.50;2.20;;;;;;;;;;4952847;29;20066;-66
2022/11/02 01:05:18;;;;;;;8.07;2.05;;;;;;;;;;4965432;28;20050;-65
2022/11/02 01:07:49;;;;;;;3.80;1.55;;;;;;;;;;4974280;28;20066;-65
2022/11/02 01:10:19;;;;;;;5.93;1.60;;;;;;;;;;4974339;28;20070;-65
2022/11/02 01:12:50;;;;;;;5.80;1.80;;;;;;;;;;4974284;28;20059;-66
2022/11/02 01:15:21;;;;;;;6.13;1.58;;;;;;;;;;4973958;28;20105;-65
2022/11/02 01:17:52;;;;;;;3.70;1.45;;;;;;;;;;4974259;28;20058;-65
2022/11/02 01:20:22;;;;;;;3.85;1.92;;;;;;;;;;4954537;29;20131;-65
2022/11/02 01:22:53;;;;;;;3.38;1.25;;;;;;;;;;4954586;29;20177;-66
2022/11/02 01:25:25;;;;;;;5.53;1.10;;;;;;;;;;4954858;29;20055;-66
2022/11/02 01:27:56;;;;;;;4.05;1.15;;;;;;;;;;4952526;29;20059;-66
2022/11/02 01:30:27;;;;;;;6.18;1.23;;;;;;;;;;4956641;28;20058;-66
2022/11/02 01:32:58;;;;;;;3.10;1.02;;;;;;;;;;4941928;28;20520;-66
2022/11/02 01:35:48;;;;;;;8.85;2.13;;;;;;;;;;4924299;29;20075;-65
2022/11/02 01:38:20;;;;;;;7.68;2.25;;;;;;;;;;4947957;28;20383;-65
2022/11/02 01:40:50;;;;;;;4.82;1.98;;;;;;;;;;4993250;28;20062;-65
2022/11/02 01:43:22;;;;;;;2.75;1.30;;;;;;;;;;4973370;28;20043;-65
2022/11/02 01:46:06;;;;;;;4.93;2.10;;;;;;;;;;4957251;28;20049;-66
2022/11/02 01:48:43;;;;;;;9.77;4.00;;;;;;;;;;4973548;28;20054;-66
2022/11/02 01:51:23;;;;;;;8.02;3.08;;;;;;;;;;4973333;28;20066;-65
2022/11/02 01:54:21;;;;;;;3.78;1.50;;;;;;;;;;4934467;29;20054;-66
2022/11/02 01:56:59;;;;;;;7.40;1.17;;;;;;;;;;4934657;29;20055;-66
2022/11/02 01:59:36;;;;;;;2.63;0.82;;;;;;;;;;4935061;29;20066;-66
2022/11/02 02:02:15;;;;;;;2.65;0.82;;;;;;;;;;4934773;29;20051;-65
2022/11/02 02:04:52;;;;;;;3.80;0.82;;;;;;;;;;4949833;29;20056;-66
2022/11/02 02:07:26;;;;;;;2.60;0.60;;;;;;;;;;4903442;29;20051;-66
2022/11/02 02:09:57;;;;;;;2.08;0.70;;;;;;;;;;4934688;29;20059;-66
2022/11/02 02:12:30;;;;;;;0.85;0.50;;;;;;;;;;4955441;28;20062;-65
2022/11/02 02:15:01;;;;;;;3.00;0.82;;;;;;;;;;4972969;28;20063;-66
2022/11/02 02:17:55;;;;;;;1.70;0.52;;;;;;;;;;4972604;28;20055;-66
2022/11/02 02:20:54;;;;;;;1.90;0.60;;;;;;;;;;4956308;28;20051;-65
2022/11/02 02:24:05;;;;;;;0.95;0.38;;;;;;;;;;4992023;28;20050;-65
2022/11/02 02:27:00;;;;;;;1.55;0.55;;;;;;;;;;4991996;28;20169;-65
2022/11/02 02:30:02;;;;;;;2.05;0.57;;;;;;;;;;4992312;28;20062;-66
2022/11/02 02:32:49;;;;;;;1.88;0.60;;;;;;;;;;4991753;28;20510;-65
2022/11/02 02:35:39;;;;;;;1.48;0.55;;;;;;;;;;4959979;28;20043;-67
2022/11/02 02:38:19;;;;;;;1.27;0.50;;;;;;;;;;4952893;29;20428;-66
2022/11/02 02:41:03;;;;;;;3.13;0.60;;;;;;;;;;4953211;29;20047;-66
2022/11/02 02:43:47;;;;;;;3.30;0.70;;;;;;;;;;4915852;29;20173;-66
2022/11/02 02:46:20;;;;;;;2.13;0.60;;;;;;;;;;4920844;29;20131;-66
2022/11/02 02:48:55;;;;;;;2.05;0.38;;;;;;;;;;4933450;29;20050;-66
2022/11/02 02:51:32;;;;;;;1.48;0.60;;;;;;;;;;4952979;29;20058;-65
2022/11/02 02:54:09;;;;;;;2.15;0.50;;;;;;;;;;4920984;29;20531;-65
2022/11/02 02:56:44;;;;;;;1.75;0.40;;;;;;;;;;4972084;28;20055;-66
2022/11/02 02:59:43;;;;;;;1.38;0.35;;;;;;;;;;4972381;28;20065;-66
2022/11/02 03:02:26;;;;;;;1.38;0.30;;;;;;;;;;4939293;28;20055;-66
2022/11/02 03:04:56;;;;;;;1.40;0.50;;;;;;;;;;4933951;29;20067;-65
2022/11/02 03:07:31;;;;;;;1.50;0.63;;;;;;;;;;4933638;29;20071;-65
2022/11/02 03:10:19;;;;;;;3.33;1.00;;;;;;;;;;4952747;28;20431;-65
2022/11/02 03:13:00;;;;;;;1.85;0.40;;;;;;;;;;4928504;29;20583;-65
2022/11/02 03:15:39;;;;;;;1.33;0.60;;;;;;;;;;4952201;28;20058;-66
2022/11/02 03:18:17;;;;;;;1.77;0.52;;;;;;;;;;4952393;28;20059;-66
2022/11/02 03:21:14;;;;;;;2.25;0.80;;;;;;;;;;4932490;28;20062;-65
2022/11/02 03:23:55;;;;;;;1.88;0.68;;;;;;;;;;4994004;28;20737;-65
2022/11/02 03:26:37;;;;;;;1.27;0.60;;;;;;;;;;4985313;28;20057;-66
2022/11/02 03:29:13;;;;;;;1.25;0.50;;;;;;;;;;4981612;28;20066;-66
2022/11/02 03:31:47;;;;;;;1.40;1.05;;;;;;;;;;4981009;28;20410;-65
2022/11/02 03:34:42;;;;;;;1.77;0.63;;;;;;;;;;4977096;28;20051;-65
2022/11/02 03:37:18;;;;;;;1.63;0.93;;;;;;;;;;4951977;29;20063;-66
2022/11/02 03:39:53;;;;;;;2.35;0.45;;;;;;;;;;4921872;29;20431;-66
2022/11/02 03:42:27;;;;;;;1.95;0.85;;;;;;;;;;4947734;29;20491;-66
2022/11/02 03:45:04;;;;;;;1.13;0.60;;;;;;;;;;4951820;29;20047;-66
2022/11/02 03:47:37;;;;;;;2.75;0.50;;;;;;;;;;4951816;29;20051;-66
2022/11/02 03:50:13;;;;;;;1.67;0.50;;;;;;;;;;4951728;29;20051;-66
2022/11/02 03:52:47;;;;;;;2.70;0.80;;;;;;;;;;4964952;28;20054;-66
2022/11/02 03:55:30;;;;;;;2.72;0.50;;;;;;;;;;4930832;29;20051;-66
2022/11/02 03:58:00;;;;;;;3.85;0.50;;;;;;;;;;4932269;29;20051;-66
2022/11/02 04:00:34;;;;;;;0.90;0.38;;;;;;;;;;4929713;29;20179;-67
2022/11/02 04:03:12;;;;;;;1.08;0.50;;;;;;;;;;4898680;29;20056;-67
2022/11/02 04:05:45;;;;;;;1.67;0.43;;;;;;;;;;4931049;29;20052;-67
2022/11/02 04:08:33;;;;;;;5.57;0.57;;;;;;;;;;4912056;29;20428;-67
2022/11/02 04:19:26;;;;;;;3.05;0.82;;;;;;;;;;4932046;29;20172;-67
2022/11/02 04:19:45;;;;;;;2.03;0.57;;;;;;;;;;4925313;29;20067;-67
2022/11/02 04:25:19;;;;;;;2.53;0.88;;;;;;;;;;4941343;29;20063;-67
2022/11/02 04:28:15;;;;;;;3.50;1.05;;;;;;;;;;4931923;29;20052;-67
2022/11/02 04:30:59;;;;;;;8.05;1.48;;;;;;;;;;4923957;29;20052;-67
2022/11/02 04:33:35;;;;;;;3.17;1.30;;;;;;;;;;4912862;29;20052;-67
2022/11/02 04:36:14;;;;;;;4.63;1.10;;;;;;;;;;4903503;29;20061;-67
2022/11/02 04:38:50;;;;;;;3.33;1.20;;;;;;;;;;4889002;29;20055;-67
2022/11/02 04:41:41;;;;;;;6.30;1.30;;;;;;;;;;4875642;29;20060;-67
2022/11/02 04:44:18;;;;;;;5.97;1.45;;;;;;;;;;4912945;29;20052;-67
2022/11/02 04:47:00;;;;;;;4.68;2.10;;;;;;;;;;4931729;29;20059;-67
2022/11/02 04:49:33;;;;;;;7.00;1.60;;;;;;;;;;4912596;29;20075;-67
2022/11/02 04:52:05;;;;;;;7.63;1.63;;;;;;;;;;4896576;29;20056;-66
2022/11/02 04:54:36;;;;;;;4.47;1.60;;;;;;;;;;4902513;29;20052;-67
2022/11/02 04:57:07;;;;;;;4.88;2.08;;;;;;;;;;4912507;29;20052;-67
2022/11/02 04:59:38;;;;;;;4.40;1.63;;;;;;;;;;4875185;29;20049;-67
2022/11/02 05:02:08;;;;;;;3.47;1.08;;;;;;;;;;4883714;29;20056;-66
2022/11/02 05:04:38;;;;;;;6.85;1.70;;;;;;;;;;4894096;29;20068;-67
2022/11/02 05:07:10;;;;;;;5.40;1.58;;;;;;;;;;4886873;29;20510;-66
2022/11/02 05:09:43;;;;;;;7.93;3.60;;;;;;;;;;4875139;29;20390;-67
2022/11/02 05:12:15;;;;;;;10.38;3.20;;;;;;;;;;4875184;29;20433;-67
2022/11/02 05:14:45;;;;;;;11.77;3.65;;;;;;;;;;4871454;29;20049;-67
2022/11/02 05:17:16;;;;;;;12.20;3.72;;;;;;;;;;4908670;29;20056;-67
2022/11/02 05:19:46;;;;;;;9.38;3.58;;;;;;;;;;4946739;29;20062;-67
2022/11/02 05:22:20;;;;;;;10.18;3.55;;;;;;;;;;4907621;29;20056;-67
2022/11/02 05:24:50;;;;;;;11.27;3.45;;;;;;;;;;4923092;29;20160;-67
2022/11/02 05:27:20;;;;;;;9.38;3.38;;;;;;;;;;4931375;29;20052;-67
2022/11/02 05:29:52;;;;;;;8.93;2.55;;;;;;;;;;4917571;29;20044;-67
2022/11/02 05:32:23;;;;;;;10.73;3.53;;;;;;;;;;4921279;29;20636;-67
2022/11/02 05:34:53;;;;;;;8.02;3.17;;;;;;;;;;4943939;29;20060;-67
2022/11/02 05:37:23;;;;;;;7.45;2.70;;;;;;;;;;4962876;28;20051;-67
2022/11/02 05:39:54;;;;;;;6.32;2.42;;;;;;;;;;4962865;28;20059;-67
2022/11/02 05:42:27;;;;;;;8.98;1.95;;;;;;;;;;4950162;28;20072;-67
2022/11/02 05:44:58;;;;;;;6.03;1.90;;;;;;;;;;4904943;29;20055;-67
2022/11/02 05:47:28;;;;;;;7.75;2.30;;;;;;;;;;4904383;29;20559;-67
2022/11/02 05:49:57;;;;;;;5.68;1.60;;;;;;;;;;4897559;29;20076;-67
2022/11/02 05:52:27;;;;;;;7.55;2.03;;;;;;;;;;4887714;29;20056;-67
2022/11/02 05:54:58;;;;;;;6.97;2.03;;;;;;;;;;4878522;29;20072;-67
2022/11/02 05:57:28;;;;;;;4.95;2.10;;;;;;;;;;4868908;29;20077;-67
2022/11/02 05:59:57;;;;;;;5.95;2.35;;;;;;;;;;4887595;29;20071;-67
2022/11/02 06:02:28;;;;;;;4.63;1.98;;;;;;;;;;4889318;29;20057;-67
2022/11/02 06:04:58;;;;;;;7.03;2.28;;;;;;;;;;4893382;29;20069;-67
2022/11/02 06:07:28;;;;;;;5.68;1.98;;;;;;;;;;4887176;29;20064;-67
2022/11/02 06:09:59;;;;;;;7.03;2.38;;;;;;;;;;4923835;29;20507;-67
2022/11/02 06:12:28;;;;;;;6.38;2.55;;;;;;;;;;4953909;29;20055;-67
2022/11/02 06:14:58;;;;;;;4.93;1.90;;;;;;;;;;4963130;28;20066;-67
2022/11/02 06:17:28;;;;;;;4.70;1.88;;;;;;;;;;4991597;28;20054;-67
2022/11/02 06:19:58;;;;;;;5.10;1.42;;;;;;;;;;4990969;28;20058;-67
2022/11/02 06:22:29;;;;;;;2.53;1.30;;;;;;;;;;5038140;28;20491;-67
2022/11/02 06:24:58;;;;;;;4.63;1.38;;;;;;;;;;5011791;28;20077;-67
2022/11/02 06:27:28;;;;;;;5.85;1.45;;;;;;;;;;5012165;28;20068;-67
2022/11/02 06:29:59;;;;;;;4.47;1.10;;;;;;;;;;5011730;28;20409;-67
2022/11/02 06:32:28;;;;;;;2.67;1.15;;;;;;;;;;5012179;28;20089;-67
2022/11/02 06:34:59;;;;;;;3.35;0.82;;;;;;;;;;5011799;28;20062;-67
2022/11/02 06:37:33;;;;;;;3.25;1.00;;;;;;;;;;4995348;28;20061;-67
2022/11/02 06:40:03;;;;;;;4.57;1.35;;;;;;;;;;4943625;28;20562;-67
2022/11/02 06:42:34;;;;;;;4.45;1.42;;;;;;;;;;4975800;28;20058;-67
2022/11/02 06:45:18;;;;;;;6.63;1.52;;;;;;;;;;4946244;28;20059;-67
2022/11/02 06:47:48;;;;;;;2.78;1.23;;;;;;;;;;4992165;28;20523;-67
2022/11/02 06:50:19;;;;;;;4.30;1.20;;;;;;;;;;4992071;28;20062;-67
2022/11/02 06:52:49;;;;;;;4.20;1.35;;;;;;;;;;4992160;28;20069;-67
2022/11/02 06:55:19;;;;;;;3.45;1.23;;;;;;;;;;4992169;28;20054;-67
2022/11/02 06:57:49;;;;;;;2.20;0.93;;;;;;;;;;4981393;28;20521;-67
2022/11/02 07:00:19;;;;;;;3.55;1.20;;;;;;;;;;5031167;28;20481;-67
2022/11/02 07:03:03;;;;;;;3.03;1.00;;;;;;;;;;5011236;28;20053;-67
2022/11/02 07:05:36;;;;;;;2.90;1.13;;;;;;;;;;4978827;28;20053;-67
2022/11/02 07:08:06;;;;;;;3.53;1.02;;;;;;;;;;4992126;28;20088;-67
2022/11/02 07:10:36;;;;;;;2.58;1.10;;;;;;;;;;5031184;28;20049;-67
2022/11/02 07:13:06;;;;;;;3.55;1.30;;;;;;;;;;5050559;28;20049;-67
2022/11/02 07:15:36;;;;;;;4.50;1.60;;;;;;;;;;5050907;28;20191;-67
2022/11/02 07:18:07;;;;;;;4.43;1.80;;;;;;;;;;5044195;28;20048;-67
2022/11/02 07:20:38;;;;;;;5.97;1.80;;;;;;;;;;5070491;28;20083;-67
2022/11/02 07:23:09;;;;;;;4.30;1.75;;;;;;;;;;5070736;28;20060;-67
2022/11/02 07:25:39;;;;;;;5.65;2.33;;;;;;;;;;5070611;28;20067;-67
2022/11/02 07:28:11;;;;;;;7.57;2.10;;;;;;;;;;4981549;28;20052;-67
2022/11/02 07:30:41;;;;;;;7.18;2.10;;;;;;;;;;4997884;28;20068;-67
2022/11/02 07:33:11;;;;;;;7.35;2.33;;;;;;;;;;5014045;28;20591;-67
2022/11/02 07:35:42;;;;;;;7.30;2.47;;;;;;;;;;5030686;28;20424;-67
2022/11/02 07:38:12;;;;;;;5.68;2.13;;;;;;;;;;5030385;28;20062;-67
2022/11/02 07:40:42;;;;;;;7.97;2.60;;;;;;;;;;5018872;28;20192;-67
2022/11/02 07:43:13;;;;;;;6.10;2.58;;;;;;;;;;5010444;28;20054;-67
2022/11/02 07:45:52;;;;;;;5.10;2.50;;;;;;;;;;4990709;28;20058;-67
2022/11/02 07:48:22;;;;;;;6.03;2.17;;;;;;;;;;4990976;28;20066;-67
2022/11/02 07:50:53;;;;;;;9.70;2.53;;;;;;;;;;5001822;28;20092;-67
2022/11/02 07:53:23;;;;;;;6.10;2.17;;;;;;;;;;4977899;28;20065;-67
2022/11/02 07:55:53;;;;;;;6.75;2.55;;;;;;;;;;4961713;28;20068;-67
2022/11/02 07:58:23;;;;;;;9.40;2.70;;;;;;;;;;5023159;28;20516;-67
2022/11/02 08:00:53;;;;;;;5.35;2.35;;;;;;;;;;5049665;28;20057;-67
2022/11/02 08:03:28;;;;;;;7.05;2.00;;;;;;;;;;5050225;28;20057;-67
2022/11/02 08:06:02;;;;;;;6.97;2.17;;;;;;;;;;4996849;28;20057;-67
2022/11/02 08:08:32;;;;;;;6.55;2.65;;;;;;;;;;5029880;28;20064;-67
2022/11/02 08:11:05;;;;;;;5.60;2.33;;;;;;;;;;5030014;28;20517;-67
2022/11/02 08:13:37;;;;;;;5.72;1.98;;;;;;;;;;5029889;28;20069;-67
2022/11/02 08:16:08;;;;;;;6.13;2.38;;;;;;;;;;5009814;28;20050;-67
2022/11/02 08:18:39;;;;;;;4.82;2.60;;;;;;;;;;5009733;28;20065;-67
2022/11/02 08:21:10;;;;;;;6.47;2.60;;;;;;;;;;5022409;28;20057;-67
2022/11/02 08:23:40;;;;;;;6.40;2.20;;;;;;;;;;5013203;28;20488;-67
2022/11/02 08:26:10;;;;;;;7.13;2.40;;;;;;;;;;5009723;28;20077;-67
2022/11/02 08:28:40;;;;;;;5.25;2.03;;;;;;;;;;5010034;28;20429;-67
2022/11/02 08:31:15;;;;;;;8.43;2.35;;;;;;;;;;5009998;28;20058;-67
2022/11/02 08:33:45;;;;;;;10.10;2.40;;;;;;;;;;5009953;28;20046;-67
2022/11/02 08:36:16;;;;;;;11.40;2.22;;;;;;;;;;5009818;28;20535;-67
2022/11/02 08:38:46;;;;;;;8.02;2.13;;;;;;;;;;5009938;28;20533;-67
2022/11/02 08:41:16;;;;;;;4.93;2.10;;;;;;;;;;5009732;28;20505;-67
2022/11/02 08:43:47;;;;;;;5.68;1.92;;;;;;;;;;5032574;28;20425;-67
2022/11/02 08:46:16;;;;;;;5.75;2.40;;;;;;;;;;5049320;28;20045;-67
2022/11/02 08:48:46;;;;;;;7.78;2.42;;;;;;;;;;5049467;28;20053;-67
2022/11/02 08:51:16;;;;;;;7.97;2.60;;;;;;;;;;5033061;28;20068;-67
2022/11/02 08:53:46;;;;;;;6.30;3.28;;;;;;;;;;5069680;28;20496;-67
2022/11/02 08:56:20;;;;;;;9.02;2.35;;;;;;;;;;5089478;28;20044;-67
2022/11/02 08:58:50;;;;;;;6.07;2.33;;;;;;;;;;5089458;28;20052;-67
2022/11/02 09:01:20;;;;;;;8.98;3.42;;;;;;;;;;5089432;28;20431;-67
2022/11/02 09:03:50;;;;;;;7.00;2.42;;;;;;;;;;5101241;28;20415;-67
2022/11/02 09:06:20;;;;;;;8.98;2.72;;;;;;;;;;5112150;28;20035;-67
2022/11/02 09:08:51;;;;;;;6.22;2.58;;;;;;;;;;5059528;28;20051;-67
2022/11/02 09:11:26;;;;;;;5.97;2.10;;;;;;;;;;5111865;28;20051;-67
2022/11/02 09:13:56;;;;;;;7.97;2.90;;;;;;;;;;5094195;28;20043;-67
2022/11/02 09:16:27;;;;;;;8.65;3.47;;;;;;;;;;5111994;28;20048;-67
2022/11/02 09:18:57;;;;;;;8.48;3.40;;;;;;;;;;5075813;28;20521;-67
2022/11/02 09:21:27;;;;;;;9.07;3.47;;;;;;;;;;5077186;28;20067;-67
2022/11/02 09:23:57;;;;;;;9.10;3.30;;;;;;;;;;5063966;28;20051;-67
2022/11/02 09:26:27;;;;;;;12.52;3.13;;;;;;;;;;5115781;28;20047;-67
2022/11/02 09:28:57;;;;;;;8.15;3.35;;;;;;;;;;5072835;28;20507;-67
2022/11/02 09:31:29;;;;;;;5.97;2.33;;;;;;;;;;5072897;28;20072;-67
2022/11/02 09:33:59;;;;;;;8.73;2.45;;;;;;;;;;5072869;28;20063;-67
2022/11/02 09:36:30;;;;;;;8.48;2.67;;;;;;;;;;5072785;28;20060;-67
2022/11/02 09:39:00;;;;;;;8.88;2.70;;;;;;;;;;5055805;28;20156;-67
2022/11/02 09:41:47;;;;;;;6.15;2.67;;;;;;;;;;5072896;28;20071;-66
2022/11/02 09:44:29;;;;;;;7.35;2.75;;;;;;;;;;5072556;28;20048;-66
2022/11/02 09:47:02;;;;;;;8.23;2.92;;;;;;;;;;5072446;28;20069;-66
2022/11/02 09:49:53;;;;;;;7.28;2.60;;;;;;;;;;5072640;28;20048;-66
2022/11/02 09:52:37;;;;;;;7.15;2.60;;;;;;;;;;5072644;28;20048;-66
2022/11/02 09:55:19;;;;;;;5.47;2.53;;;;;;;;;;5055932;28;20089;-65
2022/11/02 09:57:54;;;;;;;8.68;2.95;;;;;;;;;;5055953;28;20063;-65
2022/11/02 10:00:27;;;;;;;6.90;2.47;;;;;;;;;;5052312;28;20072;-66
2022/11/02 10:03:35;;;;;;;4.93;2.22;;;;;;;;;;5052334;28;20641;-67
2022/11/02 10:06:12;;;;;;;5.60;2.35;;;;;;;;;;4998865;28;20043;-66
2022/11/02 10:09:18;;;;;;;7.03;2.53;;;;;;;;;;5012481;28;20050;-66
2022/11/02 10:11:56;;;;;;;5.85;2.30;;;;;;;;;;5012387;28;20057;-66
2022/11/02 10:15:00;;;;;;;6.18;2.50;;;;;;;;;;5012232;28;20046;-66
2022/11/02 10:17:36;;;;;;;5.40;2.33;;;;;;;;;;4915693;29;20064;-66
2022/11/02 10:20:18;;;;;;;8.90;2.97;;;;;;;;;;4865472;29;20053;-66
2022/11/02 10:22:49;;;;;;;5.43;1.50;;;;;;;;;;4896882;29;20061;-66
2022/11/02 10:25:19;;;;;;;1.85;0.95;;;;;;;;;;4896767;29;20445;-66
2022/11/02 10:27:53;;;;;;;3.10;1.38;;;;;;;;;;4896968;29;20053;-66
2022/11/02 10:30:26;;;;;;;4.43;1.50;;;;;;;;;;4896607;29;20063;-66
2022/11/02 10:32:58;;;;;;;4.40;1.38;;;;;;;;;;4895477;29;20072;-66
2022/11/02 10:36:16;;;;;;;3.47;1.50;;;;;;;;;;4915435;29;20428;-66
2022/11/02 10:39:02;;;;;;;3.20;1.38;;;;;;;;;;4915467;29;20052;-65
2022/11/02 10:42:05;;;;;;;6.15;1.73;;;;;;;;;;4896485;29;20535;-65
2022/11/02 10:45:02;;;;;;;11.25;4.03;;;;;;;;;;4915311;29;20052;-65
2022/11/02 10:48:12;;;;;;;13.90;5.10;;;;;;;;;;4915155;29;20083;-65
2022/11/02 10:50:48;;;;;;;4.60;1.40;;;;;;;;;;4892698;29;20060;-66
2022/11/02 10:53:43;;;;;;;4.20;1.40;;;;;;;;;;4935497;28;20444;-66
2022/11/02 10:56:20;;;;;;;5.47;1.40;;;;;;;;;;4992028;28;20054;-65
2022/11/02 10:59:09;;;;;;;2.65;1.25;;;;;;;;;;5010547;28;20050;-65
2022/11/02 11:02:03;;;;;;;3.60;0.95;;;;;;;;;;4921593;29;20543;-65
2022/11/02 11:04:36;;;;;;;2.88;0.85;;;;;;;;;;4953024;29;20415;-65
2022/11/02 11:07:13;;;;;;;3.92;0.98;;;;;;;;;;4936922;29;20055;-64
2022/11/02 11:09:56;;;;;;;2.55;0.68;;;;;;;;;;4952980;29;20048;-66
2022/11/02 11:12:42;;;;;;;1.83;0.75;;;;;;;;;;4914898;29;20083;-65
2022/11/02 11:15:41;;;;;;;1.95;0.75;;;;;;;;;;4917943;29;20060;-65
2022/11/02 11:18:21;;;;;;;3.42;0.70;;;;;;;;;;4880565;29;20485;-63
2022/11/02 11:21:12;;;;;;;3.10;0.63;;;;;;;;;;4892525;29;20068;-64
2022/11/02 11:23:44;;;;;;;2.40;0.73;;;;;;;;;;4911333;29;20053;-65
2022/11/02 11:26:30;;;;;;;3.63;0.68;;;;;;;;;;4911193;29;20044;-65
2022/11/02 11:29:01;;;;;;;2.47;1.00;;;;;;;;;;4879868;29;20052;-64
2022/11/02 11:31:32;;;;;;;2.17;0.75;;;;;;;;;;4895523;29;20064;-64
2022/11/02 11:34:05;;;;;;;7.75;1.02;;;;;;;;;;4971932;28;20050;-65
2022/11/02 11:36:39;;;;;;;3.40;0.63;;;;;;;;;;4971552;28;20062;-65
2022/11/02 11:39:31;;;;;;;1.08;0.47;;;;;;;;;;4952228;28;20063;-65
2022/11/02 11:42:12;;;;;;;3.08;0.73;;;;;;;;;;4952286;29;20423;-64
2022/11/02 11:44:58;;;;;;;2.28;1.02;;;;;;;;;;4951794;28;20519;-63
2022/11/02 11:47:34;;;;;;;5.03;0.85;;;;;;;;;;4971230;28;20062;-65
2022/11/02 11:50:15;;;;;;;4.53;0.95;;;;;;;;;;4916632;29;20526;-65
2022/11/02 11:53:27;;;;;;;2.25;0.52;;;;;;;;;;4947035;29;20047;-64
2022/11/02 11:56:24;;;;;;;6.90;0.80;;;;;;;;;;4938754;28;20101;-65
2022/11/02 11:58:55;;;;;;;4.15;0.82;;;;;;;;;;4932480;29;20630;-65
2022/11/02 12:01:26;;;;;;;4.00;1.42;;;;;;;;;;4884447;29;20053;-64
2022/11/02 12:04:02;;;;;;;1.80;0.68;;;;;;;;;;4860649;29;20068;-64
2022/11/02 12:07:29;;;;;;;4.32;0.93;;;;;;;;;;4820114;29;20061;-65
2022/11/02 12:10:23;;;;;;;2.05;0.73;;;;;;;;;;4802686;29;20066;-64
2022/11/02 12:13:24;;;;;;;3.38;0.77;;;;;;;;;;4787389;29;20594;-65
2022/11/02 12:16:35;;;;;;;2.85;0.60;;;;;;;;;;4803020;29;20166;-64
2022/11/02 12:19:29;;;;;;;5.90;1.30;;;;;;;;;;4813589;29;20067;-64
2022/11/02 12:22:10;;;;;;;7.65;0.93;;;;;;;;;;4784661;30;20067;-65
2022/11/02 12:25:22;;;;;;;0.98;0.45;;;;;;;;;;4756169;30;20051;-65
2022/11/02 12:28:00;;;;;;;2.45;0.70;;;;;;;;;;4784244;30;20062;-64
2022/11/02 12:30:55;;;;;;;3.75;0.70;;;;;;;;;;4768208;30;20079;-66
2022/11/02 12:34:23;;;;;;;5.60;1.67;;;;;;;;;;4822374;29;20065;-65
2022/11/02 12:37:00;;;;;;;19.45;5.30;;;;;;;;;;4834980;29;20505;-65
2022/11/02 12:40:29;;;;;;;47.28;13.40;;;;;;;;;;4875434;29;20060;-66
2022/11/02 12:43:48;;;;;;;21.75;7.55;;;;;;;;;;4838601;29;20076;-65
2022/11/02 12:47:03;;;;;;;5.03;1.55;;;;;;;;;;4830165;29;20056;-65
2022/11/02 12:49:40;;;;;;;4.55;1.00;;;;;;;;;;4817028;29;20064;-65
2022/11/02 12:52:21;;;;;;;1.65;0.73;;;;;;;;;;4875636;29;20518;-64
2022/11/02 12:54:57;;;;;;;4.30;1.35;;;;;;;;;;4875548;29;20161;-65
2022/11/02 12:57:32;;;;;;;3.40;1.48;;;;;;;;;;4914077;29;20071;-65
2022/11/02 13:00:14;;;;;;;1.88;1.23;;;;;;;;;;4931904;29;20056;-65
2022/11/02 13:03:19;;;;;;;5.88;0.90;;;;;;;;;;4912998;29;20531;-65
2022/11/02 13:05:56;;;;;;;9.23;4.07;;;;;;;;;;4913032;29;20068;-65
2022/11/02 13:08:59;;;;;;;3.25;0.88;;;;;;;;;;4881554;29;20060;-65
2022/11/02 13:12:05;;;;;;;5.28;2.22;;;;;;;;;;4931766;29;20058;-66
2022/11/02 13:14:52;;;;;;;4.10;1.10;;;;;;;;;;4932026;29;20059;-65
2022/11/02 13:17:25;;;;;;;3.80;1.13;;;;;;;;;;4931842;29;20056;-65
2022/11/02 13:20:00;;;;;;;2.40;0.70;;;;;;;;;;4931754;29;20102;-63
2022/11/02 13:22:37;;;;;;;3.17;0.60;;;;;;;;;;4932012;29;20047;-65
2022/11/02 13:25:47;;;;;;;1.88;0.52;;;;;;;;;;4951878;28;20510;-63
2022/11/02 13:28:37;;;;;;;2.35;0.40;;;;;;;;;;4984996;28;20526;-66
2022/11/02 13:31:19;;;;;;;3.15;0.70;;;;;;;;;;4989720;28;20065;-65
2022/11/02 13:33:59;;;;;;;3.95;0.55;;;;;;;;;;4989602;28;20061;-65
2022/11/02 13:36:30;;;;;;;2.72;1.15;;;;;;;;;;4989703;28;20061;-65
2022/11/02 13:39:30;;;;;;;2.33;1.00;;;;;;;;;;4989531;28;20127;-65
2022/11/02 13:42:50;;;;;;;2.78;0.98;;;;;;;;;;4969862;28;20530;-65
2022/11/02 13:45:32;;;;;;;3.28;0.50;;;;;;;;;;4937766;28;20047;-65
2022/11/02 13:48:19;;;;;;;1.92;0.85;;;;;;;;;;5004185;28;20057;-65
2022/11/02 13:50:53;;;;;;;0.70;0.30;;;;;;;;;;4969762;28;20057;-64
2022/11/02 13:53:35;;;;;;;2.67;0.88;;;;;;;;;;4937932;28;20066;-65
2022/11/02 13:56:11;;;;;;;1.33;0.50;;;;;;;;;;4953881;28;20078;-64
2022/11/02 13:58:49;;;;;;;1.73;0.52;;;;;;;;;;4941524;28;20053;-67
2022/11/02 14:01:20;;;;;;;1.45;0.30;;;;;;;;;;4989536;28;20115;-64
2022/11/02 14:04:00;;;;;;;0.65;0.25;;;;;;;;;;4989434;28;20566;-64
2022/11/02 14:06:33;;;;;;;0.95;0.40;;;;;;;;;;4950525;29;20096;-66
2022/11/02 14:09:10;;;;;;;5.10;0.80;;;;;;;;;;4953926;28;20063;-66
2022/11/02 14:11:41;;;;;;;0.70;0.40;;;;;;;;;;4954027;29;20572;-65
2022/11/02 14:14:31;;;;;;;1.60;0.47;;;;;;;;;;4915352;29;20056;-65
2022/11/02 14:17:13;;;;;;;1.00;0.50;;;;;;;;;;4915573;29;20551;-66
2022/11/02 14:19:44;;;;;;;1.02;0.52;;;;;;;;;;4945009;28;20110;-65
2022/11/02 14:22:16;;;;;;;1.88;0.50;;;;;;;;;;4973384;28;20058;-64
2022/11/02 14:24:52;;;;;;;1.88;0.35;;;;;;;;;;4973326;28;20071;-65
2022/11/02 14:27:24;;;;;;;1.77;0.43;;;;;;;;;;4973105;28;20054;-67
2022/11/02 14:29:55;;;;;;;1.50;0.70;;;;;;;;;;4956875;28;20054;-65
2022/11/02 14:32:39;;;;;;;2.45;0.38;;;;;;;;;;4988939;28;20055;-65
2022/11/02 14:35:33;;;;;;;3.55;0.90;;;;;;;;;;4984441;28;20517;-65
2022/11/02 14:38:32;;;;;;;2.20;0.50;;;;;;;;;;4953415;29;20051;-64
2022/11/02 14:41:29;;;;;;;2.20;0.50;;;;;;;;;;4953644;29;20063;-64
2022/11/02 14:44:22;;;;;;;2.25;1.08;;;;;;;;;;4904717;29;20059;-65
2022/11/02 14:47:00;;;;;;;0.82;0.45;;;;;;;;;;4915398;29;20064;-65
2022/11/02 14:49:34;;;;;;;1.05;0.40;;;;;;;;;;4899339;29;20052;-65
2022/11/02 14:52:22;;;;;;;0.35;0.20;;;;;;;;;;4942316;28;20077;-66
2022/11/02 14:55:31;;;;;;;1.40;0.40;;;;;;;;;;4972600;28;20065;-64
2022/11/02 14:58:14;;;;;;;1.38;0.38;;;;;;;;;;4972356;28;20055;-64
2022/11/02 15:00:47;;;;;;;2.05;0.50;;;;;;;;;;4972476;28;20057;-64
2022/11/02 15:03:24;;;;;;;1.80;0.70;;;;;;;;;;4952850;28;20062;-64
2022/11/02 15:06:03;;;;;;;2.45;0.90;;;;;;;;;;4946725;29;20160;-67
2022/11/02 15:08:53;;;;;;;1.35;0.45;;;;;;;;;;4933830;29;20087;-66
2022/11/02 15:11:50;;;;;;;1.58;0.40;;;;;;;;;;4933957;29;20083;-63
2022/11/02 15:14:57;;;;;;;1.00;0.47;;;;;;;;;;4952753;29;20051;-65
2022/11/02 15:17:27;;;;;;;2.30;0.80;;;;;;;;;;4929950;29;20471;-65
2022/11/02 15:19:58;;;;;;;1.65;0.50;;;;;;;;;;4913829;29;20059;-65
2022/11/02 15:22:29;;;;;;;3.25;0.40;;;;;;;;;;4914649;29;20138;-63
2022/11/02 15:25:08;;;;;;;1.67;0.65;;;;;;;;;;4914807;29;20176;-64
2022/11/02 15:27:42;;;;;;;2.60;0.80;;;;;;;;;;4914725;29;20437;-65
2022/11/02 15:30:16;;;;;;;0.90;0.30;;;;;;;;;;4971767;28;20051;-65
2022/11/02 15:33:00;;;;;;;1.63;0.52;;;;;;;;;;4972039;28;20530;-64
2022/11/02 15:35:34;;;;;;;0.98;0.47;;;;;;;;;;4971455;28;20054;-65
2022/11/02 15:38:06;;;;;;;1.13;0.30;;;;;;;;;;4972024;28;20054;-67
2022/11/02 15:40:50;;;;;;;2.30;0.43;;;;;;;;;;4980260;28;20522;-65
2022/11/02 15:43:36;;;;;;;0.73;0.30;;;;;;;;;;4991115;28;20054;-63
2022/11/02 15:46:21;;;;;;;1.73;0.50;;;;;;;;;;5005791;28;20061;-64
2022/11/02 15:49:16;;;;;;;0.80;0.50;;;;;;;;;;5010523;28;20061;-65
2022/11/02 15:52:18;;;;;;;1.05;0.35;;;;;;;;;;4994072;28;20049;-67
2022/11/02 15:55:07;;;;;;;1.10;0.40;;;;;;;;;;5037985;28;20059;-63
2022/11/02 15:57:47;;;;;;;2.70;0.60;;;;;;;;;;5050014;28;20045;-65
2022/11/02 16:00:29;;;;;;;1.90;0.40;;;;;;;;;;5049754;28;20061;-67